Terminal Aerodrome Forecast
Issued by NWS Houston/Galveston TX

Home | Current Version | Previous Version | Text Only | Print | Product List | Glossary On
Versions: 1 2 3 4 5 6 7 8 9 10 11 12 13 14 15 16 17 18 19 20 21 22 23 24 25 26 27 28 29 30 31 32 33 34 35 36 37 38 39 40 41 42 43 44 45 46 47 48 49 50
000
FTUS44 KHGX 241146
TAFHOU
TAF
KHOU 241146Z 2412/2512 16011G19KT 4SM -TSRA BR SCT007 BKN015
      OVC030CB
      TEMPO 2412/2415 VRB15G30KT 1SM +TSRA BKN006 OVC015CB
     FM241500 15009KT P6SM -SHRA BKN020 OVC080
      TEMPO 2415/2418 5SM TSRA BKN020CB OVC050
     FM242200 17011KT 5SM -SHRA BR SCT007 BKN015
     FM250300 16008KT P6SM BKN050
     FM250500 16012KT P6SM VCSH BKN025 BKN050=

USA.gov is the U.S. government's official web portal to all federal, state and local government web resources and services.